Time;durP1;ratioP1;P1;durP2;ratioP2;P2;SDS_P1;SDS_P2;PMS_P1;PMS_P2;Temp;Humidity;BMP_temperature;BMP_pressure;BME280_temperature;BME280_humidity;BME280_pressure;Samples;Min_cycle;Max_cycle;Signal;HPM_P1;HPM_P2
2023/06/25 00:00:44;;;;;;;;;6.00;5.00;;;;;28.03;37.08;101088.13;5093483;27;45703;-76
2023/06/25 00:03:10;;;;;;;;;7.50;6.00;;;;;28.07;37.58;101102.03;5091911;27;45565;-77
2023/06/25 00:05:35;;;;;;;;;5.00;4.75;;;;;28.07;37.34;101113.59;5093328;27;47417;-76
2023/06/25 00:11:22;;;;;;;;;5.50;4.75;;;;;28.04;37.25;101097.88;5093406;27;45693;-76
2023/06/25 00:13:47;;;;;;;;;4.75;4.00;;;;;27.99;37.69;101092.28;5093695;27;45783;-77
2023/06/25 00:16:13;;;;;;;;;5.50;5.00;;;;;28.00;37.96;101091.25;5093274;27;45762;-75
2023/06/25 00:18:38;;;;;;;;;4.75;3.75;;;;;27.95;37.35;101082.97;5093356;27;45772;-77
2023/06/25 00:21:05;;;;;;;;;4.25;4.00;;;;;27.96;37.91;101076.56;5093405;27;45686;-77
2023/06/25 00:26:52;;;;;;;;;4.00;4.00;;;;;27.93;37.17;101076.97;5083379;27;46354;-77
2023/06/25 00:29:18;;;;;;;;;5.00;4.50;;;;;27.84;37.31;101059.38;5093561;27;46140;-78
2023/06/25 00:31:44;;;;;;;;;5.00;5.00;;;;;27.84;37.84;101062.06;5093451;27;45642;-76
2023/06/25 00:34:10;;;;;;;;;4.00;4.00;;;;;27.84;37.77;101067.47;5096187;27;45605;-75
2023/06/25 00:36:36;;;;;;;;;5.00;4.50;;;;;27.80;38.09;101082.41;5096291;27;47201;-75
2023/06/25 00:39:05;;;;;;;;;5.00;5.00;;;;;27.65;37.76;101058.38;5096383;27;45902;-77
2023/06/25 00:41:30;;;;;;;;;4.00;4.00;;;;;27.71;37.79;101062.91;5096461;27;45761;-77
2023/06/25 00:43:58;;;;;;;;;5.00;5.00;;;;;27.68;37.64;101060.66;5096585;27;45753;-76
2023/06/25 00:46:25;;;;;;;;;5.75;4.75;;;;;27.48;38.57;101028.31;5096348;27;45825;-76
2023/06/25 00:48:52;;;;;;;;;6.00;4.50;;;;;27.51;38.09;101041.41;5096981;27;45811;-76
2023/06/25 00:51:26;;;;;;;;;4.00;3.75;;;;;27.57;38.25;101057.78;5096995;27;45658;-77
2023/06/25 00:57:27;;;;;;;;;4.25;4.00;;;;;27.49;38.82;101059.59;5096716;27;46080;-76
2023/06/25 00:59:54;;;;;;;;;7.00;5.00;;;;;27.47;38.61;101052.78;5096409;27;46132;-76
2023/06/25 01:02:51;;;;;;;;;4.00;4.00;;;;;27.35;38.66;101032.91;5096454;27;45546;-78
2023/06/25 01:05:28;;;;;;;;;5.00;4.00;;;;;27.43;38.68;101051.53;5081907;27;45873;-76
2023/06/25 01:07:57;;;;;;;;;4.25;4.00;;;;;27.26;38.81;101016.13;5096758;27;46417;-76
2023/06/25 01:10:23;;;;;;;;;5.50;4.00;;;;;27.40;38.44;101042.03;5096251;27;47277;-77
2023/06/25 01:12:49;;;;;;;;;4.00;4.00;;;;;27.38;39.12;101027.94;5096240;27;45431;-77
2023/06/25 01:15:35;;;;;;;;;4.75;4.00;;;;;27.33;38.66;101029.59;5096431;27;45517;-77
2023/06/25 01:18:01;;;;;;;;;5.00;4.75;;;;;27.31;38.90;101037.06;5094832;27;45683;-77
2023/06/25 01:20:29;;;;;;;;;5.50;5.50;;;;;27.29;38.93;101028.34;5094617;27;48003;-77
2023/06/25 01:23:01;;;;;;;;;5.00;4.25;;;;;27.26;39.07;101034.16;5095614;27;45716;-77
2023/06/25 01:25:26;;;;;;;;;5.50;4.50;;;;;27.17;39.15;101030.00;5094606;27;45959;-77
2023/06/25 01:27:52;;;;;;;;;3.50;2.50;;;;;27.06;39.18;101018.84;5095631;27;46432;-74
2023/06/25 01:30:20;;;;;;;;;5.00;5.00;;;;;27.21;39.28;101036.66;5096094;27;46360;-73
2023/06/25 01:33:04;;;;;;;;;6.00;5.25;;;;;27.19;39.11;101027.94;5095459;27;45705;-77
2023/06/25 01:35:32;;;;;;;;;5.00;4.00;;;;;27.00;39.67;101016.97;5095403;27;45865;-77
2023/06/25 01:38:14;;;;;;;;;4.75;4.75;;;;;27.15;39.70;101039.09;5094377;27;48140;-76
2023/06/25 01:40:40;;;;;;;;;4.25;4.25;;;;;26.76;39.25;100974.53;5095650;27;46031;-77
2023/06/25 01:43:05;;;;;;;;;7.00;6.00;;;;;27.06;39.72;101026.06;5095721;27;45692;-75
2023/06/25 01:45:31;;;;;;;;;4.75;4.75;;;;;26.99;39.62;101017.19;5094482;27;45760;-75
2023/06/25 01:47:57;;;;;;;;;4.25;4.25;;;;;27.03;39.08;101023.81;5094557;27;45508;-75
2023/06/25 01:50:23;;;;;;;;;3.00;2.00;;;;;26.94;39.37;101012.41;5095669;27;46511;-76
2023/06/25 01:52:48;;;;;;;;;4.75;4.25;;;;;27.00;39.40;101026.91;5094142;27;45603;-73
2023/06/25 01:55:14;;;;;;;;;5.00;5.00;;;;;26.95;39.33;101013.25;5095929;27;45486;-74
2023/06/25 01:57:39;;;;;;;;;4.00;3.50;;;;;26.97;38.92;101014.69;5095276;27;46527;-77
2023/06/25 02:00:10;;;;;;;;;4.00;4.00;;;;;26.87;39.47;100997.28;5093953;27;47283;-76
2023/06/25 02:02:35;;;;;;;;;4.00;4.00;;;;;26.87;39.42;101005.34;5095427;27;45745;-76
2023/06/25 02:05:00;;;;;;;;;5.00;5.00;;;;;26.79;39.29;100986.72;5094039;27;45561;-76
2023/06/25 02:07:26;;;;;;;;;5.00;5.00;;;;;26.91;39.41;101012.84;5095415;27;47264;-75
2023/06/25 02:09:52;;;;;;;;;4.25;4.00;;;;;26.89;39.48;101006.81;5095292;27;46601;-76
2023/06/25 02:12:17;;;;;;;;;5.00;5.00;;;;;26.90;39.68;101004.97;5095011;27;45461;-76
2023/06/25 02:14:43;;;;;;;;;3.50;3.50;;;;;26.88;39.60;101001.66;5094853;27;45430;-76
2023/06/25 02:17:08;;;;;;;;;4.25;4.00;;;;;26.86;39.44;101004.53;5095014;27;45435;-74
2023/06/25 02:19:33;;;;;;;;;5.50;5.00;;;;;26.87;39.82;100999.97;5094845;27;46347;-76
2023/06/25 02:21:59;;;;;;;;;4.75;4.75;;;;;26.86;39.51;100990.25;5094842;27;45705;-76
2023/06/25 02:24:24;;;;;;;;;3.00;3.00;;;;;26.77;39.60;100976.19;5095120;27;45650;-75
2023/06/25 02:26:49;;;;;;;;;5.50;5.50;;;;;26.86;39.31;100982.19;5094804;27;46346;-76
2023/06/25 02:29:15;;;;;;;;;3.00;3.00;;;;;26.73;39.75;100964.16;5095070;27;45501;-75
2023/06/25 02:31:40;;;;;;;;;2.50;2.50;;;;;26.84;39.28;100978.84;5094740;27;45737;-76
2023/06/25 02:34:06;;;;;;;;;4.00;4.00;;;;;26.84;39.17;100978.84;5094780;27;45735;-77
2023/06/25 02:36:31;;;;;;;;;4.00;4.00;;;;;26.78;39.54;100969.75;5094674;27;46356;-76
2023/06/25 02:38:56;;;;;;;;;5.00;5.00;;;;;26.80;39.81;100970.38;5094379;27;45582;-77
2023/06/25 02:41:22;;;;;;;;;6.00;4.50;;;;;26.69;39.22;100954.84;5094367;27;45749;-76
2023/06/25 02:43:47;;;;;;;;;5.00;5.00;;;;;26.76;39.53;100971.00;5094622;27;45910;-77
2023/06/25 02:46:12;;;;;;;;;4.00;4.00;;;;;26.65;39.35;100953.63;5094381;27;47296;-77
2023/06/25 02:48:42;;;;;;;;;3.50;3.50;;;;;26.70;39.23;100954.66;5094508;27;46347;-76
2023/06/25 02:51:08;;;;;;;;;6.50;3.00;;;;;26.59;39.14;100938.31;5094541;27;45495;-76
2023/06/25 02:53:33;;;;;;;;;5.75;5.00;;;;;26.68;39.71;100956.72;5094255;27;45663;-75
2023/06/25 02:55:58;;;;;;;;;4.00;3.75;;;;;26.68;39.77;100963.94;5094022;27;45568;-75
2023/06/25 02:58:24;;;;;;;;;3.50;3.50;;;;;26.67;39.81;100968.50;5094248;27;46190;-78
2023/06/25 03:00:49;;;;;;;;;4.00;4.00;;;;;26.59;39.54;100960.66;5094407;27;45536;-75
2023/06/25 03:03:15;;;;;;;;;3.00;2.75;;;;;26.64;39.26;100962.72;5094396;27;45864;-76
2023/06/25 03:05:40;;;;;;;;;3.00;3.00;;;;;26.59;39.38;100971.41;5094320;27;46312;-76
2023/06/25 03:08:06;;;;;;;;;3.00;2.50;;;;;26.61;39.13;100968.50;5094111;27;46126;-77
2023/06/25 03:13:53;;;;;;;;;4.50;4.00;;;;;26.57;39.47;100975.31;5094416;27;45528;-77
2023/06/25 03:16:18;;;;;;;;;4.00;4.00;;;;;26.55;39.50;100972.03;5093032;27;47411;-74
2023/06/25 03:18:44;;;;;;;;;3.25;3.25;;;;;26.52;39.60;100965.19;5094244;27;47263;-76
2023/06/25 03:21:09;;;;;;;;;4.00;4.00;;;;;26.51;39.69;100962.69;5094092;27;45533;-75
2023/06/25 03:30:32;;;;;;;;;4.75;4.00;;;;;26.44;39.12;100951.94;5053210;28;46073;-77
2023/06/25 03:32:57;;;;;;;;;5.00;5.00;;;;;26.44;39.98;100951.13;5053053;28;45712;-77
2023/06/25 03:35:22;;;;;;;;;3.25;3.25;;;;;26.39;39.35;100953.59;5052952;28;45779;-77
2023/06/25 03:37:47;;;;;;;;;5.00;4.00;;;;;26.36;39.77;100953.97;5053480;28;46272;-77
2023/06/25 03:43:35;;;;;;;;;4.50;4.00;;;;;26.14;39.58;100935.28;5052706;28;45713;-77
2023/06/25 03:46:06;;;;;;;;;5.00;5.00;;;;;26.25;40.05;100953.53;5051844;28;46010;-75
2023/06/25 03:48:34;;;;;;;;;5.00;4.25;;;;;26.16;39.58;100935.09;5051554;27;47304;-78
2023/06/25 03:51:03;;;;;;;;;4.00;4.00;;;;;26.23;39.97;100946.72;5068644;28;47409;-77
2023/06/25 03:53:29;;;;;;;;;5.00;5.00;;;;;26.19;40.15;100943.56;5053089;28;45651;-75
2023/06/25 03:59:15;;;;;;;;;4.75;4.00;;;;;26.17;40.75;100945.66;5053133;28;45470;-76
2023/06/25 04:01:44;;;;;;;;;5.00;5.00;;;;;26.11;40.37;100941.09;5052895;28;45474;-77
2023/06/25 04:04:09;;;;;;;;;5.00;5.00;;;;;26.15;40.74;100949.56;5051453;28;45860;-77
2023/06/25 04:06:34;;;;;;;;;6.00;4.00;;;;;26.06;40.36;100937.34;5052959;28;45660;-77
2023/06/25 04:09:00;;;;;;;;;6.00;5.00;;;;;26.07;40.42;100939.84;5055730;28;45896;-76
2023/06/25 04:14:49;;;;;;;;;5.00;4.00;;;;;26.14;40.60;100947.91;5056151;28;45544;-76
2023/06/25 04:17:16;;;;;;;;;5.00;4.00;;;;;26.11;40.81;100940.25;5056341;28;45919;-77
2023/06/25 04:19:42;;;;;;;;;5.00;4.00;;;;;26.10;41.29;100938.59;5056225;27;46927;-77
2023/06/25 04:22:28;;;;;;;;;4.50;4.50;;;;;26.11;40.71;100940.25;5056309;28;47053;-78
2023/06/25 04:24:53;;;;;;;;;5.75;5.00;;;;;26.11;41.18;100940.25;5056227;27;45662;-76
2023/06/25 04:27:20;;;;;;;;;4.50;4.50;;;;;26.01;41.16;100926.38;5056609;28;45693;-74
2023/06/25 04:29:55;;;;;;;;;5.00;5.00;;;;;26.09;41.51;100937.75;5084624;27;47478;-77
2023/06/25 04:32:20;;;;;;;;;4.25;4.25;;;;;26.10;41.40;100941.28;5096088;27;46721;-77
2023/06/25 04:34:48;;;;;;;;;6.00;4.50;;;;;25.96;41.26;100916.25;5096344;27;45804;-78
2023/06/25 04:37:20;;;;;;;;;7.75;6.50;;;;;25.66;40.99;100875.44;5095558;27;45863;-78
2023/06/25 04:39:46;;;;;;;;;6.75;6.50;;;;;25.57;41.21;100867.78;5112877;27;46641;-82
2023/06/25 04:42:11;;;;;;;;;7.50;6.50;;;;;25.92;41.38;100909.59;5096940;27;45600;-74
2023/06/25 04:44:36;;;;;;;;;4.50;4.50;;;;;26.01;41.32;100929.06;5096389;27;45731;-74
2023/06/25 04:47:02;;;;;;;;;5.75;5.25;;;;;26.10;41.23;100946.66;5096586;27;45762;-77
2023/06/25 04:49:27;;;;;;;;;5.25;5.25;;;;;26.09;41.39;100947.69;5096558;27;46537;-77
2023/06/25 04:51:53;;;;;;;;;5.00;5.00;;;;;26.00;41.66;100925.56;5112013;27;46991;-77
2023/06/25 04:54:18;;;;;;;;;5.00;5.00;;;;;26.10;41.95;100947.47;5096797;27;45572;-77
2023/06/25 05:00:06;;;;;;;;;7.00;6.50;;;;;26.06;41.72;100934.66;5096184;27;45635;-78
2023/06/25 05:02:32;;;;;;;;;5.50;5.00;;;;;26.08;41.75;100941.47;5096314;27;47036;-77
2023/06/25 05:04:57;;;;;;;;;7.50;6.50;;;;;25.62;42.35;100879.56;5096451;27;45485;-76
2023/06/25 05:07:23;;;;;;;;;11.25;9.75;;;;;26.11;42.13;100951.81;5097088;27;45776;-78
2023/06/25 05:09:48;;;;;;;;;6.50;6.00;;;;;26.03;42.28;100937.72;5096459;27;46451;-76
2023/06/25 05:15:35;;;;;;;;;5.25;5.00;;;;;26.06;42.71;100940.03;5096113;27;45745;-74
2023/06/25 05:18:01;;;;;;;;;9.00;7.00;;;;;26.08;42.16;100954.91;5111745;27;45938;-75
2023/06/25 05:20:26;;;;;;;;;5.50;5.50;;;;;26.00;42.61;100944.34;5095830;27;46514;-74
2023/06/25 05:22:52;;;;;;;;;6.00;6.00;;;;;26.01;42.57;100943.34;5095864;27;46001;-75
2023/06/25 05:25:17;;;;;;;;;8.00;7.00;;;;;26.03;42.42;100952.00;5095828;27;45740;-75
2023/06/25 05:27:42;;;;;;;;;7.00;7.00;;;;;26.04;42.62;100953.66;5095866;27;45793;-73
2023/06/25 05:30:08;;;;;;;;;10.75;10.25;;;;;26.04;42.69;100945.59;5095232;27;46881;-74
2023/06/25 05:32:33;;;;;;;;;8.75;8.00;;;;;26.02;42.94;100944.97;5095420;27;45744;-75
2023/06/25 05:34:59;;;;;;;;;9.00;8.00;;;;;26.03;43.03;100956.53;5096349;27;45884;-75
2023/06/25 05:37:24;;;;;;;;;16.00;15.25;;;;;25.98;42.82;100941.03;5096139;27;45954;-76
2023/06/25 05:39:49;;;;;;;;;10.00;9.00;;;;;26.00;42.78;100947.03;5095746;27;47370;-76
2023/06/25 05:45:36;;;;;;;;;7.00;7.00;;;;;25.94;42.67;100938.94;5095691;27;45707;-75
2023/06/25 05:48:01;;;;;;;;;7.00;6.25;;;;;25.97;42.68;100947.41;5094623;27;45536;-74
2023/06/25 05:50:27;;;;;;;;;8.00;8.00;;;;;25.97;43.19;100946.59;5095713;27;46866;-74
2023/06/25 05:52:52;;;;;;;;;11.50;11.00;;;;;25.96;42.56;100936.91;5095617;27;46001;-75
2023/06/25 05:55:17;;;;;;;;;8.25;8.00;;;;;25.99;43.61;100952.59;5095681;27;45548;-74
2023/06/25 06:01:04;;;;;;;;;9.00;8.00;;;;;25.96;43.17;100947.66;5095192;27;45761;-75
2023/06/25 06:03:30;;;;;;;;;6.25;6.25;;;;;25.99;43.03;100957.97;5095351;27;45685;-74
2023/06/25 06:05:56;;;;;;;;;7.00;7.00;;;;;25.99;43.21;100950.75;5095874;27;45620;-75
2023/06/25 06:08:22;;;;;;;;;6.75;6.50;;;;;25.98;43.32;100948.25;5095547;27;45689;-75
2023/06/25 06:10:48;;;;;;;;;7.00;7.00;;;;;25.92;43.01;100944.50;5102599;27;46464;-78
2023/06/25 06:16:35;;;;;;;;;9.00;8.50;;;;;26.03;42.73;100960.06;5095394;27;45780;-79
2023/06/25 06:19:01;;;;;;;;;7.00;7.00;;;;;26.04;43.04;100953.66;5096153;27;45494;-78
2023/06/25 06:21:26;;;;;;;;;10.00;8.00;;;;;26.05;43.16;100952.63;5095975;27;45872;-81
2023/06/25 06:23:52;;;;;;;;;6.75;6.25;;;;;26.07;42.84;100944.38;5095572;27;46399;-79
2023/06/25 06:26:18;;;;;;;;;6.75;6.25;;;;;26.01;43.05;100931.75;5094930;27;45542;-78
2023/06/25 06:28:44;;;;;;;;;7.75;7.50;;;;;26.08;42.91;100946.84;5094747;27;45820;-79
2023/06/25 06:31:10;;;;;;;;;7.25;7.25;;;;;26.01;42.81;100927.22;5094508;27;46463;-78
2023/06/25 06:33:35;;;;;;;;;7.75;6.75;;;;;26.10;42.86;100943.97;5094706;27;46157;-78
2023/06/25 06:36:00;;;;;;;;;8.00;7.00;;;;;26.08;42.56;100937.97;5094825;27;45557;-78
2023/06/25 06:38:26;;;;;;;;;10.00;9.75;;;;;26.10;42.52;100941.28;5093985;27;45884;-78
2023/06/25 06:40:51;;;;;;;;;8.75;8.50;;;;;26.10;42.68;100933.22;5094632;27;45687;-77
2023/06/25 06:46:38;;;;;;;;;7.50;7.50;;;;;26.05;42.69;100924.94;5094746;27;45873;-76
2023/06/25 06:49:03;;;;;;;;;7.50;7.25;;;;;26.11;42.80;100934.88;5093294;27;45855;-77
2023/06/25 06:51:28;;;;;;;;;9.50;8.75;;;;;26.11;42.21;100942.94;5094331;27;47272;-76
2023/06/25 06:53:54;;;;;;;;;8.25;8.25;;;;;26.07;42.34;100930.94;5094510;27;46021;-77
2023/06/25 06:56:19;;;;;;;;;9.25;8.00;;;;;26.13;42.54;100932.81;5094230;27;45579;-77
2023/06/25 07:02:06;;;;;;;;;10.00;10.00;;;;;26.15;41.82;100928.06;5093822;27;46078;-75
2023/06/25 07:04:32;;;;;;;;;9.25;8.00;;;;;26.12;41.64;100918.56;5094111;27;46407;-77
2023/06/25 07:06:57;;;;;;;;;8.75;7.50;;;;;26.17;41.77;100934.06;5092957;27;45697;-75
2023/06/25 07:09:25;;;;;;;;;12.50;11.00;;;;;26.18;42.24;100925.78;5094667;27;45743;-76
2023/06/25 07:11:50;;;;;;;;;9.25;9.00;;;;;26.22;41.83;100935.16;5094825;27;45732;-76
2023/06/25 07:17:36;;;;;;;;;10.00;9.00;;;;;26.26;41.66;100930.19;5094268;27;45745;-79
2023/06/25 07:20:02;;;;;;;;;10.50;10.00;;;;;26.26;42.23;100924.81;5094495;27;45696;-77
2023/06/25 07:22:27;;;;;;;;;10.00;9.25;;;;;26.28;41.77;100928.16;5093986;27;47679;-77
2023/06/25 07:24:53;;;;;;;;;10.00;10.00;;;;;26.24;41.50;100922.31;5092756;27;48034;-77
2023/06/25 07:27:18;;;;;;;;;9.75;9.75;;;;;26.31;41.58;100933.94;5094438;27;45543;-77
2023/06/25 07:29:43;;;;;;;;;10.75;9.75;;;;;26.34;41.13;100931.88;5094398;27;45617;-77
2023/06/25 07:32:09;;;;;;;;;9.50;9.50;;;;;26.36;41.33;100925.25;5092733;27;48259;-77
2023/06/25 07:34:35;;;;;;;;;10.50;10.25;;;;;26.37;41.69;100923.41;5094159;27;47390;-77
2023/06/25 07:37:00;;;;;;;;;10.25;9.75;;;;;26.33;41.87;100917.59;5094368;27;45845;-77
2023/06/25 07:39:29;;;;;;;;;9.50;9.50;;;;;26.44;41.48;100932.31;5094168;27;45782;-78
2023/06/25 07:41:55;;;;;;;;;10.00;8.75;;;;;26.45;41.71;100924.00;5092141;27;46567;-77
2023/06/25 07:47:42;;;;;;;;;12.00;11.25;;;;;26.50;41.22;100921.56;5097873;27;45668;-77
2023/06/25 07:50:08;;;;;;;;;11.50;10.00;;;;;26.53;41.04;100923.00;5097326;27;45875;-78
2023/06/25 07:52:33;;;;;;;;;10.00;10.00;;;;;26.53;41.06;100912.25;5097377;27;45634;-76
2023/06/25 07:54:58;;;;;;;;;8.75;8.00;;;;;26.57;41.05;100905.41;5097479;27;45727;-75
2023/06/25 07:57:24;;;;;;;;;11.00;9.00;;;;;26.60;41.10;100905.84;5097345;27;45647;-75
2023/06/25 08:03:11;;;;;;;;;10.50;9.75;;;;;26.66;40.61;100914.97;5096658;27;46065;-77
2023/06/25 08:05:36;;;;;;;;;9.00;9.00;;;;;26.71;40.89;100916.00;5096825;27;46153;-77
2023/06/25 08:08:02;;;;;;;;;10.00;10.00;;;;;26.73;40.42;100916.59;5097220;27;45673;-77
2023/06/25 08:10:27;;;;;;;;;11.00;10.00;;;;;26.74;40.34;100915.56;5097164;27;45816;-77
2023/06/25 08:12:54;;;;;;;;;5.50;4.75;;;;;26.81;40.56;100917.44;5096784;27;46568;-76
2023/06/25 08:15:21;;;;;;;;;10.00;9.75;;;;;26.84;41.11;100920.53;5096952;27;46321;-77
2023/06/25 08:17:47;;;;;;;;;10.25;10.25;;;;;26.88;40.69;100913.75;5097393;27;45580;-77
2023/06/25 08:20:13;;;;;;;;;10.75;9.50;;;;;26.89;40.89;100909.16;5097358;27;45505;-75
2023/06/25 08:22:38;;;;;;;;;11.00;11.00;;;;;26.95;40.26;100906.47;5097137;27;45504;-77
2023/06/25 08:25:17;;;;;;;;;9.50;9.50;;;;;26.99;39.68;100906.91;5097083;27;46462;-77
2023/06/25 08:27:43;;;;;;;;;9.50;8.75;;;;;27.01;40.13;100896.75;5097724;27;45587;-77
2023/06/25 08:34:10;;;;;;;;;11.00;10.50;;;;;27.09;39.62;100894.69;5091581;27;45774;-77
2023/06/25 08:36:36;;;;;;;;;10.50;9.00;;;;;27.15;39.67;100895.72;5096895;27;45712;-77
2023/06/25 08:39:01;;;;;;;;;10.25;10.00;;;;;27.19;40.21;100906.88;5096821;27;45764;-77
2023/06/25 08:41:28;;;;;;;;;10.50;10.50;;;;;27.17;39.86;100890.09;5096793;27;45599;-76
2023/06/25 08:43:54;;;;;;;;;9.50;9.25;;;;;27.26;39.45;100900.41;5095367;27;46839;-77
2023/06/25 08:46:22;;;;;;;;;11.00;10.00;;;;;27.26;39.35;100886.97;5096294;27;45938;-77
2023/06/25 08:48:53;;;;;;;;;11.25;9.75;;;;;27.23;39.62;100873.94;5096926;27;45494;-77
2023/06/25 08:51:23;;;;;;;;;11.00;9.50;;;;;27.37;39.65;100880.91;5078660;27;45533;-77
2023/06/25 08:53:48;;;;;;;;;11.50;11.00;;;;;27.33;39.77;100868.09;5096047;27;47695;-77
2023/06/25 08:56:17;;;;;;;;;10.00;10.00;;;;;27.47;39.11;100878.63;5096398;27;46891;-77
2023/06/25 08:58:43;;;;;;;;;11.25;9.75;;;;;27.51;38.98;100882.56;5095485;27;45763;-78
2023/06/25 09:01:12;;;;;;;;;10.00;9.50;;;;;27.50;38.73;100867.47;5099467;27;45595;-85
2023/06/25 09:03:38;;;;;;;;;12.00;10.50;;;;;27.59;38.54;100873.41;5099638;27;45571;-79
2023/06/25 09:06:11;;;;;;;;;9.75;9.50;;;;;27.63;38.21;100868.44;5103406;27;46109;-79
2023/06/25 09:08:40;;;;;;;;;11.75;11.00;;;;;27.64;38.98;100864.72;5102266;27;45606;-78
2023/06/25 09:11:05;;;;;;;;;12.00;12.00;;;;;27.72;38.52;100875.22;5099419;27;45940;-82
2023/06/25 09:13:33;;;;;;;;;10.25;10.25;;;;;27.77;38.56;100867.34;5113673;27;46263;-80
2023/06/25 09:19:21;;;;;;;;;7.00;6.25;;;;;27.85;38.95;100867.09;5096178;27;45473;-78
2023/06/25 09:21:48;;;;;;;;;10.50;10.50;;;;;27.86;38.18;100856.09;5112393;27;45643;-80
2023/06/25 09:24:19;;;;;;;;;10.75;10.25;;;;;27.97;38.29;100868.03;5095832;27;46849;-81
2023/06/25 09:26:48;;;;;;;;;11.50;11.25;;;;;28.03;37.93;100869.88;5096363;27;45999;-80
2023/06/25 09:29:15;;;;;;;;;13.00;11.00;;;;;28.08;38.18;100864.66;5094285;27;45632;-80
2023/06/25 09:31:42;;;;;;;;;10.75;10.25;;;;;28.08;37.31;100856.56;5095628;27;45595;-81
2023/06/25 09:34:08;;;;;;;;;11.50;11.50;;;;;28.13;37.00;100854.09;5095502;27;45850;-79
2023/06/25 09:36:33;;;;;;;;;9.75;9.75;;;;;28.12;36.77;100841.69;5096473;27;45782;-82
2023/06/25 09:39:00;;;;;;;;;10.75;10.00;;;;;28.25;36.81;100851.53;5095618;27;45639;-80
2023/06/25 09:41:27;;;;;;;;;11.25;10.00;;;;;28.29;37.19;100845.47;5096877;27;45749;-82
2023/06/25 09:43:56;;;;;;;;;9.25;9.25;;;;;28.35;36.68;100846.47;5096557;27;45855;-78
2023/06/25 09:49:43;;;;;;;;;10.25;10.25;;;;;28.46;36.14;100848.44;5096994;27;45607;-84
2023/06/25 09:52:10;;;;;;;;;12.25;12.00;;;;;28.49;36.29;100839.94;5096880;27;45793;-80
2023/06/25 09:54:40;;;;;;;;;27.75;26.00;;;;;28.55;36.03;100847.16;5096595;27;47786;-79
2023/06/25 09:57:11;;;;;;;;;40.25;32.50;;;;;28.56;36.68;100831.75;5096687;27;46072;-81
2023/06/25 09:59:38;;;;;;;;;13.25;13.00;;;;;28.62;35.62;100833.59;5099416;27;45877;-83
2023/06/25 10:02:07;;;;;;;;;8.00;8.00;;;;;28.66;35.38;100835.63;5105956;27;45769;-86
2023/06/25 10:04:34;;;;;;;;;11.75;11.00;;;;;28.72;35.65;100837.44;5097743;27;47397;-75
2023/06/25 10:07:02;;;;;;;;;9.25;9.25;;;;;28.74;36.07;100827.28;5095018;27;46162;-76
2023/06/25 10:09:27;;;;;;;;;11.75;10.50;;;;;28.79;35.36;100826.59;5095506;27;45633;-78
2023/06/25 10:11:56;;;;;;;;;10.50;9.50;;;;;28.86;35.53;100816.56;5095444;27;45941;-78
2023/06/25 10:14:21;;;;;;;;;11.50;11.00;;;;;28.85;35.27;100811.41;5095432;27;45746;-77
2023/06/25 10:20:09;;;;;;;;;10.00;10.00;;;;;29.02;35.36;100807.88;5095105;27;45614;-77
2023/06/25 10:22:34;;;;;;;;;15.00;14.00;;;;;29.06;35.13;100811.78;5095660;27;45508;-79
2023/06/25 10:24:59;;;;;;;;;12.00;11.50;;;;;29.11;34.82;100816.50;5095551;27;45767;-81
2023/06/25 10:27:25;;;;;;;;;11.25;11.00;;;;;29.18;34.73;100819.97;5097419;27;46237;-85
2023/06/25 10:29:54;;;;;;;;;14.50;12.50;;;;;29.23;34.67;100824.66;5098414;27;45503;-85
2023/06/25 10:32:27;;;;;;;;;11.00;9.75;;;;;29.15;34.17;100798.81;5096492;27;45763;-81
2023/06/25 10:34:59;;;;;;;;;12.00;11.50;;;;;29.25;34.14;100803.69;5096552;27;45651;-83
2023/06/25 10:37:32;;;;;;;;;10.25;10.00;;;;;29.28;34.22;100792.41;5095280;27;47459;-82
2023/06/25 10:40:07;;;;;;;;;9.25;9.00;;;;;29.46;33.64;100814.03;5096101;27;45680;-84
2023/06/25 10:42:35;;;;;;;;;9.50;9.50;;;;;29.51;33.39;100815.00;5095531;27;45647;-86
2023/06/25 10:45:00;;;;;;;;;11.25;10.75;;;;;29.41;32.99;100786.91;5095160;27;46417;-82
2023/06/25 10:47:26;;;;;;;;;12.00;10.25;;;;;29.60;32.63;100802.00;5093597;27;48019;-81
2023/06/25 10:49:51;;;;;;;;;9.50;9.50;;;;;29.61;32.79;100801.78;5095172;27;45823;-81
2023/06/25 10:52:18;;;;;;;;;8.75;8.50;;;;;29.62;32.37;100786.38;5100008;27;45651;-83
2023/06/25 10:54:44;;;;;;;;;8.75;8.75;;;;;29.73;32.06;100801.81;5096362;27;47367;-80
2023/06/25 10:57:11;;;;;;;;;10.00;10.00;;;;;29.78;31.92;100799.25;5096174;27;45995;-86
2023/06/25 10:59:38;;;;;;;;;10.75;10.00;;;;;29.64;32.26;100770.75;5097328;27;45721;-87
2023/06/25 11:05:34;;;;;;;;;9.50;9.50;;;;;29.80;31.80;100780.91;5096714;27;46047;-84
2023/06/25 11:08:00;;;;;;;;;9.25;9.25;;;;;29.94;31.76;100793.22;5096184;27;46421;-82
2023/06/25 11:10:26;;;;;;;;;10.25;9.25;;;;;29.96;31.65;100790.28;5095037;27;45634;-80
2023/06/25 11:12:51;;;;;;;;;11.00;10.50;;;;;30.01;31.55;100788.50;5094861;27;45795;-81
2023/06/25 11:15:17;;;;;;;;;12.00;10.75;;;;;30.00;31.62;100778.78;5095054;27;45665;-82
2023/06/25 11:17:50;;;;;;;;;11.00;10.50;;;;;30.10;31.46;100790.88;5095791;27;45855;-81
2023/06/25 11:20:15;;;;;;;;;11.75;10.75;;;;;30.13;31.84;100782.31;5112075;27;45677;-80
2023/06/25 11:22:42;;;;;;;;;10.00;10.00;;;;;30.16;32.04;100779.16;5094660;27;45555;-81
2023/06/25 11:25:08;;;;;;;;;9.50;9.00;;;;;30.20;31.10;100778.44;5094451;27;46730;-81
2023/06/25 11:27:33;;;;;;;;;9.50;9.00;;;;;30.24;31.35;100785.03;5094360;27;45634;-80
2023/06/25 11:30:03;;;;;;;;;10.00;9.00;;;;;30.17;31.09;100759.19;5094599;27;45553;-79
2023/06/25 11:36:30;;;;;;;;;11.25;10.50;;;;;30.40;31.44;100769.97;5089721;27;46119;-80
2023/06/25 11:38:57;;;;;;;;;11.25;10.75;;;;;30.24;31.59;100735.53;5094491;27;45590;-81
2023/06/25 11:41:27;;;;;;;;;10.75;10.25;;;;;30.50;31.11;100758.63;5094437;27;45729;-80
2023/06/25 11:43:52;;;;;;;;;10.50;10.50;;;;;30.54;31.22;100763.31;5094185;27;45516;-80
2023/06/25 11:46:18;;;;;;;;;12.25;12.25;;;;;30.61;31.47;100757.81;5094305;27;46273;-79
2023/06/25 11:48:50;;;;;;;;;13.25;13.00;;;;;30.65;31.27;100762.50;5093935;27;45651;-80
2023/06/25 11:51:15;;;;;;;;;12.25;12.25;;;;;30.65;30.48;100750.84;5094152;27;45639;-81
2023/06/25 11:53:41;;;;;;;;;11.00;10.00;;;;;30.65;30.48;100745.44;5094664;27;45674;-80
2023/06/25 11:56:06;;;;;;;;;11.00;10.00;;;;;30.71;30.16;100741.78;5093940;27;46325;-80
2023/06/25 11:58:31;;;;;;;;;10.00;9.75;;;;;30.78;30.28;100754.09;5093701;27;45686;-78
2023/06/25 12:00:57;;;;;;;;;11.25;10.75;;;;;30.72;30.09;100733.41;5093462;27;45655;-82
2023/06/25 12:03:22;;;;;;;;;10.00;9.75;;;;;30.86;29.71;100755.63;5093690;27;45653;-81
2023/06/25 12:05:48;;;;;;;;;8.75;8.25;;;;;30.64;29.37;100717.56;5093510;27;46563;-81
2023/06/25 12:08:13;;;;;;;;;10.75;9.75;;;;;30.83;30.08;100743.38;5094139;27;45630;-80
2023/06/25 12:10:38;;;;;;;;;9.50;9.50;;;;;30.94;29.59;100751.72;5095654;27;45626;-80
2023/06/25 12:13:04;;;;;;;;;11.00;11.00;;;;;31.00;29.77;100758.88;5095568;27;45880;-80
2023/06/25 12:15:29;;;;;;;;;12.00;11.50;;;;;31.02;30.25;100752.19;5099162;27;45494;-79
2023/06/25 12:21:16;;;;;;;;;11.50;10.75;;;;;31.06;30.12;100726.28;5100019;27;45721;-80
2023/06/25 12:23:42;;;;;;;;;11.00;11.00;;;;;31.07;29.49;100732.53;5097175;27;45478;-83
2023/06/25 12:26:07;;;;;;;;;9.00;7.75;;;;;31.12;29.06;100740.75;5096273;27;45565;-79
2023/06/25 12:28:32;;;;;;;;;10.50;9.75;;;;;31.16;29.42;100739.19;5097840;27;45599;-82
2023/06/25 12:30:58;;;;;;;;;11.00;10.75;;;;;31.19;29.35;100731.44;5100282;27;45746;-84
2023/06/25 12:36:45;;;;;;;;;9.75;9.00;;;;;31.28;29.53;100729.16;5088465;27;45630;-82
2023/06/25 12:39:10;;;;;;;;;11.50;11.25;;;;;31.32;29.60;100730.31;5098141;27;45650;-82
2023/06/25 12:41:36;;;;;;;;;11.00;10.75;;;;;31.35;29.45;100737.16;5097026;27;45646;-81
2023/06/25 12:44:01;;;;;;;;;10.00;9.00;;;;;31.37;29.74;100721.44;5096716;27;45674;-76
2023/06/25 12:46:26;;;;;;;;;10.75;10.00;;;;;31.43;29.78;100737.56;5096753;27;45646;-77
2023/06/25 12:48:52;;;;;;;;;12.50;11.00;;;;;31.48;29.92;100728.69;5096699;27;46051;-77